Time;durP1;ratioP1;P1;durP2;ratioP2;P2;SDS_P1;SDS_P2;PMS_P1;PMS_P2;Temp;Humidity;BMP_temperature;BMP_pressure;BME280_temperature;BME280_humidity;BME280_pressure;Samples;Min_cycle;Max_cycle;Signal;HPM_P1;HPM_P2
2021/09/09 05:36:05;;;;;;;14.07;7.57;;;;;;;16.28;100.00;101835.34;6282034;22;20023;-72
2021/09/09 05:38:50;;;;;;;12.55;6.55;;;;;;;16.11;100.00;101829.56;6307184;22;20010;-72
2021/09/09 05:41:37;;;;;;;11.50;6.45;;;;;;;15.93;100.00;101827.31;6308223;22;20313;-72
2021/09/09 05:44:23;;;;;;;11.30;6.55;;;;;;;15.96;100.00;101824.63;6307330;22;20007;-72
2021/09/09 05:47:09;;;;;;;11.93;6.55;;;;;;;15.87;100.00;101824.81;6306188;22;20014;-72
2021/09/09 05:49:55;;;;;;;13.60;7.10;;;;;;;16.16;100.00;101817.97;6306086;22;20006;-72
2021/09/09 05:52:41;;;;;;;19.95;7.53;;;;;;;16.19;100.00;101817.06;6308244;22;20045;-72
2021/09/09 09:29:26;;;;;;;9.25;3.75;;;;;;;25.42;64.86;101720.25;6282873;22;20019;-73
2021/09/09 09:32:12;;;;;;;8.90;3.90;;;;;;;25.36;63.94;101717.97;6306401;22;20026;-72
2021/09/09 09:35:19;;;;;;;25.13;5.60;;;;;;;25.08;65.66;101710.72;6307043;22;20007;-72
2021/09/09 09:38:13;;;;;;;13.38;4.80;;;;;;;25.10;67.74;101714.19;6276103;22;20035;-72
2021/09/09 09:41:04;;;;;;;11.85;4.28;;;;;;;24.69;67.35;101709.59;6275865;22;20008;-72
2021/09/09 09:43:56;;;;;;;8.07;3.90;;;;;;;25.29;64.75;101692.47;6277133;22;20008;-75
2021/09/09 09:46:42;;;;;;;8.60;3.75;;;;;;;25.27;65.14;101689.00;6277371;22;20004;-76
2021/09/09 09:49:31;;;;;;;16.70;5.25;;;;;;;25.35;64.34;101690.25;6277139;22;19999;-76
2021/09/09 09:52:20;;;;;;;24.15;5.70;;;;;;;23.98;67.34;101697.72;6276144;22;20402;-74
2021/09/09 09:55:08;;;;;;;24.58;5.57;;;;;;;24.18;68.11;101677.84;6277496;22;20000;-72
2021/09/09 09:58:01;;;;;;;9.07;4.30;;;;;;;24.41;67.26;101690.72;6277357;22;20015;-73
2021/09/09 10:00:47;;;;;;;8.55;3.50;;;;;;;24.99;62.51;101673.75;6278449;22;20053;-75
2021/09/09 10:03:34;;;;;;;7.43;3.42;;;;;;;25.92;61.17;101666.84;6276981;22;20073;-75
2021/09/09 10:06:20;;;;;;;12.13;3.70;;;;;;;25.27;60.53;101670.22;6278209;22;20090;-75
2021/09/09 10:09:06;;;;;;;11.20;3.33;;;;;;;25.28;60.81;101669.28;6276915;22;20406;-73
2021/09/09 10:11:52;;;;;;;9.50;3.38;;;;;;;25.02;58.67;101661.97;6277528;22;20027;-73
2021/09/09 10:14:51;;;;;;;8.38;3.33;;;;;;;25.66;57.88;101654.25;6278508;22;20082;-75
2021/09/09 10:17:37;;;;;;;6.05;3.13;;;;;;;25.59;56.65;101655.63;6277804;22;20011;-75
2021/09/09 10:20:36;;;;;;;11.25;3.33;;;;;;;25.37;57.14;101639.19;6277777;22;20003;-75
2021/09/09 10:23:25;;;;;;;8.57;3.08;;;;;;;24.90;56.25;101652.00;6278578;22;20010;-75
2021/09/09 10:26:26;;;;;;;7.65;3.30;;;;;;;25.02;55.76;101646.75;6278908;22;20391;-75
2021/09/09 10:30:06;;;;;;;7.40;3.10;;;;;;;25.65;54.53;101641.81;6278404;22;20081;-76
2021/09/09 10:32:55;;;;;;;8.52;3.33;;;;;;;25.46;54.22;101638.59;6156142;23;20009;-75
2021/09/09 10:35:41;;;;;;;9.68;3.25;;;;;;;26.42;52.35;101632.97;6279211;22;20090;-75
2021/09/09 10:38:39;;;;;;;15.60;3.70;;;;;;;25.88;50.41;101639.31;6276881;22;20422;-75
2021/09/09 10:41:28;;;;;;;11.80;3.20;;;;;;;26.27;51.50;101631.31;6280063;22;20016;-75
2021/09/09 10:44:15;;;;;;;9.65;3.30;;;;;;;26.93;50.19;101613.19;6278711;22;20460;-75
2021/09/09 10:47:18;;;;;;;6.75;2.80;;;;;;;26.97;49.64;101617.41;6278599;22;20090;-75
2021/09/09 10:50:05;;;;;;;6.32;4.05;;;;;;;27.58;49.20;101618.38;6276490;22;20000;-75
2021/09/09 10:53:05;;;;;;;13.52;3.72;;;;;;;27.72;46.18;101624.44;6278177;22;20318;-74
2021/09/09 10:55:50;;;;;;;10.35;3.50;;;;;;;27.29;46.58;101617.81;6277835;22;20113;-76
2021/09/09 10:58:40;;;;;;;10.48;3.15;;;;;;;26.96;47.18;101606.75;6276759;22;20425;-75
2021/09/09 11:01:30;;;;;;;12.40;3.33;;;;;;;26.83;48.45;101595.13;6278055;22;20012;-75
2021/09/09 11:04:27;;;;;;;7.43;3.20;;;;;;;27.21;45.54;101615.66;6277975;22;20004;-75
2021/09/09 11:07:24;;;;;;;7.80;3.25;;;;;;;26.76;47.80;101599.25;6276849;22;20410;-75
2021/09/09 11:10:11;;;;;;;18.63;3.63;;;;;;;27.15;47.61;101601.75;6278642;22;20010;-72
2021/09/09 11:12:57;;;;;;;7.28;3.30;;;;;;;27.23;47.68;101597.59;6279518;22;20094;-73
2021/09/09 11:15:42;;;;;;;9.40;3.28;;;;;;;27.39;46.15;101594.63;6277389;22;20327;-72
2021/09/09 11:18:29;;;;;;;9.52;3.05;;;;;;;27.59;45.05;101594.03;6277834;22;20073;-72
2021/09/09 11:21:21;;;;;;;7.55;3.25;;;;;;;27.41;43.94;101601.63;6277881;22;20008;-75
2021/09/09 11:24:14;;;;;;;6.78;3.08;;;;;;;27.90;43.32;101581.84;6276292;22;20015;-74
2021/09/09 11:27:01;;;;;;;7.78;3.15;;;;;;;27.69;43.09;101581.59;6278295;22;20008;-75
2021/09/09 11:29:58;;;;;;;9.73;3.72;;;;;;;27.33;42.17;101585.16;6280059;22;20027;-75
2021/09/09 11:33:03;;;;;;;10.95;3.63;;;;;;;27.53;43.20;101579.19;6277739;22;20014;-75
2021/09/09 11:36:03;;;;;;;7.47;3.45;;;;;;;27.87;43.51;101577.56;6278238;22;20004;-76
2021/09/09 11:38:58;;;;;;;6.72;3.92;;;;;;;28.19;42.65;101572.38;6274964;22;20008;-73
2021/09/09 11:41:44;;;;;;;13.88;3.60;;;;;;;28.11;42.71;101569.41;6275930;22;20018;-73
2021/09/09 11:44:33;;;;;;;8.85;3.15;;;;;;;27.78;41.41;101564.75;6277209;22;20406;-74
2021/09/09 11:47:29;;;;;;;13.48;3.10;;;;;;;27.89;40.12;101569.34;6278613;22;20012;-76
2021/09/09 11:50:15;;;;;;;13.70;3.03;;;;;;;27.58;39.94;101556.44;6279769;22;20157;-72
2021/09/09 11:53:07;;;;;;;15.95;3.50;;;;;;;27.48;40.63;101554.44;6278072;22;20018;-76
2021/09/09 11:55:54;;;;;;;11.55;3.42;;;;;;;27.91;41.76;101553.91;6276456;22;20064;-76
2021/09/09 11:58:43;;;;;;;8.73;3.60;;;;;;;28.24;41.11;101544.09;6277704;22;20314;-73
2021/09/09 12:01:32;;;;;;;9.75;3.63;;;;;;;28.16;40.79;101545.69;6277448;22;20004;-74
2021/09/09 12:04:21;;;;;;;6.35;3.50;;;;;;;27.80;41.11;101543.09;6276052;22;20039;-73
2021/09/09 12:07:08;;;;;;;6.68;3.60;;;;;;;28.34;40.01;101534.34;6277828;22;20008;-73
2021/09/09 12:10:02;;;;;;;7.00;3.45;;;;;;;28.23;39.81;101528.91;6275982;22;20003;-73
2021/09/09 12:12:56;;;;;;;7.20;3.63;;;;;;;27.76;40.52;101531.66;6277766;22;20003;-73
2021/09/09 12:15:42;;;;;;;10.65;3.58;;;;;;;27.98;40.69;101520.16;6277105;22;20008;-73
2021/09/09 12:18:31;;;;;;;8.30;2.97;;;;;;;27.33;40.25;101534.03;6277695;22;20004;-74
2021/09/09 12:21:22;;;;;;;9.00;3.42;;;;;;;27.12;40.26;101522.13;6277712;22;20007;-73
2021/09/09 12:24:10;;;;;;;8.80;3.60;;;;;;;26.79;41.47;101521.03;6276895;22;20004;-73
2021/09/09 12:27:01;;;;;;;6.70;2.90;;;;;;;26.53;41.02;101522.84;6276720;22;20043;-73
2021/09/09 12:29:52;;;;;;;8.25;3.20;;;;;;;26.86;42.02;101514.25;6276022;22;20015;-75
2021/09/09 12:32:41;;;;;;;7.93;3.20;;;;;;;27.03;41.97;101503.97;6277007;22;20007;-73
2021/09/09 12:35:28;;;;;;;10.15;3.40;;;;;;;27.39;42.10;101521.94;6277249;22;20087;-73
2021/09/09 12:38:13;;;;;;;8.57;3.05;;;;;;;27.71;40.88;101506.94;6276064;22;20035;-72
2021/09/09 12:41:00;;;;;;;8.20;3.20;;;;;;;27.59;41.43;101505.16;6276798;22;20090;-73
2021/09/09 12:43:50;;;;;;;6.97;2.97;;;;;;;27.44;40.74;101498.22;6277693;22;20082;-73
2021/09/09 12:46:46;;;;;;;8.82;2.92;;;;;;;27.75;39.65;101489.56;6277740;22;20406;-72
2021/09/09 12:49:32;;;;;;;6.07;2.80;;;;;;;27.65;38.33;101480.47;6277296;22;20306;-75
2021/09/09 12:52:21;;;;;;;7.80;3.28;;;;;;;27.76;37.51;101482.34;6277766;22;20007;-77
2021/09/09 12:55:07;;;;;;;7.95;2.80;;;;;;;27.74;37.35;101489.66;6275005;22;20011;-74
2021/09/09 12:57:52;;;;;;;10.18;5.20;;;;;;;28.09;37.48;101475.25;6275880;22;20008;-72
2021/09/09 13:00:39;;;;;;;18.67;8.57;;;;;;;28.14;37.87;101473.03;6276799;22;20003;-72
2021/09/09 13:03:33;;;;;;;6.28;3.42;;;;;;;28.00;38.78;101475.09;6276415;22;20062;-73
2021/09/09 13:06:19;;;;;;;9.63;3.63;;;;;;;27.64;39.09;101470.66;6277379;22;20014;-73
2021/09/09 13:09:05;;;;;;;9.05;3.50;;;;;;;27.71;39.07;101477.31;6276358;22;20015;-73
2021/09/09 13:11:51;;;;;;;6.05;3.13;;;;;;;27.94;38.97;101478.25;6276432;22;20035;-74
2021/09/09 13:14:36;;;;;;;11.00;3.50;;;;;;;27.69;39.69;101479.28;6276616;22;20016;-73
2021/09/09 13:17:23;;;;;;;5.63;3.47;;;;;;;27.63;39.80;101477.03;6277825;22;20007;-74
2021/09/09 13:20:09;;;;;;;8.27;3.40;;;;;;;27.61;39.89;101464.66;6276782;22;20310;-73
2021/09/09 13:22:55;;;;;;;11.70;4.05;;;;;;;27.99;40.08;101463.44;6277974;22;20074;-73
2021/09/09 13:25:41;;;;;;;7.20;4.05;;;;;;;27.53;40.91;101465.25;6276478;22;19999;-72
2021/09/09 13:28:27;;;;;;;8.10;3.55;;;;;;;27.68;40.79;101458.69;6276009;22;20368;-72
2021/09/09 13:31:22;;;;;;;13.32;3.97;;;;;;;27.57;41.47;101463.19;6275821;22;20011;-72
2021/09/09 13:34:08;;;;;;;7.88;3.75;;;;;;;27.79;40.77;101456.03;6277900;22;20316;-73
2021/09/09 13:36:54;;;;;;;8.38;3.28;;;;;;;27.81;40.72;101455.91;6277700;22;20008;-73
2021/09/09 13:39:39;;;;;;;9.50;3.65;;;;;;;27.32;40.77;101456.09;6276165;22;20085;-73
2021/09/09 13:42:25;;;;;;;8.80;3.88;;;;;;;27.61;40.72;101452.06;6276514;22;20007;-73
2021/09/09 13:45:11;;;;;;;11.80;3.97;;;;;;;27.39;40.63;101449.28;6275739;22;20406;-73
2021/09/09 13:47:57;;;;;;;10.88;4.10;;;;;;;27.62;40.16;101450.22;6276170;22;20004;-74
2021/09/09 13:50:43;;;;;;;15.15;4.70;;;;;;;27.43;40.26;101448.06;6276266;22;20003;-73
2021/09/09 13:53:29;;;;;;;13.20;4.30;;;;;;;27.04;41.62;101445.63;6276590;22;20015;-73
2021/09/09 13:56:17;;;;;;;16.58;9.18;;;;;;;27.51;41.66;101442.97;6276008;22;20015;-73
2021/09/09 13:59:02;;;;;;;9.88;3.80;;;;;;;27.09;42.32;101444.31;6276760;22;20031;-73
2021/09/09 14:01:48;;;;;;;7.45;3.55;;;;;;;27.41;41.68;101432.03;6276158;22;20015;-74
2021/09/09 14:04:34;;;;;;;10.43;5.85;;;;;;;27.66;42.24;101428.31;6274254;22;20007;-73
2021/09/09 14:07:23;;;;;;;11.60;5.43;;;;;;;27.38;42.06;101434.09;6274213;22;20011;-74
2021/09/09 14:10:11;;;;;;;9.98;3.60;;;;;;;27.05;42.81;101436.59;6276480;22;20045;-74
2021/09/09 14:12:57;;;;;;;13.48;3.83;;;;;;;26.95;43.37;101433.75;6276102;22;20004;-73
2021/09/09 14:15:43;;;;;;;10.77;4.65;;;;;;;27.09;43.24;101432.72;6276918;22;20307;-73
2021/09/09 14:18:29;;;;;;;13.43;5.05;;;;;;;27.29;43.53;101429.44;6276753;22;20014;-73
2021/09/09 14:21:15;;;;;;;10.73;6.90;;;;;;;27.31;43.35;101428.34;6276591;22;20004;-73
2021/09/09 14:24:01;;;;;;;6.90;3.72;;;;;;;27.49;43.79;101434.16;6276171;22;20280;-72
2021/09/09 14:26:47;;;;;;;10.57;4.38;;;;;;;27.44;43.86;101428.25;6274346;22;20402;-72
2021/09/09 14:29:32;;;;;;;8.23;3.72;;;;;;;27.42;43.87;101431.06;6275877;22;20019;-72
2021/09/09 14:32:18;;;;;;;7.90;3.28;;;;;;;27.26;43.92;101427.81;6274838;22;20008;-73
2021/09/09 14:35:05;;;;;;;13.73;4.03;;;;;;;27.45;44.23;101430.81;6275662;22;20100;-72
2021/09/09 14:37:52;;;;;;;7.10;3.55;;;;;;;27.25;44.56;101425.25;6274898;22;20007;-73
2021/09/09 14:40:38;;;;;;;7.28;3.50;;;;;;;27.10;45.47;101418.28;6276626;22;20007;-72
2021/09/09 14:43:24;;;;;;;8.35;3.90;;;;;;;26.86;45.95;101414.72;6275758;22;20003;-72
2021/09/09 14:46:12;;;;;;;14.95;3.97;;;;;;;26.94;46.32;101417.72;6276359;22;20007;-72
2021/09/09 14:48:58;;;;;;;8.25;3.70;;;;;;;27.17;45.13;101408.78;6276144;22;20068;-73
2021/09/09 14:51:44;;;;;;;13.02;4.93;;;;;;;27.00;44.47;101414.53;6275872;22;20073;-73
2021/09/09 14:54:31;;;;;;;9.00;3.38;;;;;;;26.78;43.94;101409.06;6277060;22;20007;-73
2021/09/09 14:57:17;;;;;;;5.47;3.55;;;;;;;26.86;44.30;101403.97;6275850;22;20000;-73
2021/09/09 15:00:04;;;;;;;9.18;3.50;;;;;;;26.59;43.62;101401.47;6277910;22;20019;-73
2021/09/09 15:02:49;;;;;;;12.65;3.25;;;;;;;26.41;43.93;101389.31;6276230;22;20003;-75
2021/09/09 15:05:37;;;;;;;17.48;8.25;;;;;;;26.92;43.53;101399.00;6278057;22;20003;-75
2021/09/09 15:08:23;;;;;;;18.85;14.55;;;;;;;26.60;44.97;101391.59;6276421;22;20015;-75
2021/09/09 15:11:08;;;;;;;9.13;4.20;;;;;;;26.46;44.46;101389.88;6276959;22;20008;-74
2021/09/09 15:13:54;;;;;;;6.40;3.70;;;;;;;26.38;44.68;101388.69;6276117;22;20007;-74
2021/09/09 15:16:40;;;;;;;9.13;3.40;;;;;;;26.29;44.61;101384.84;6278523;22;20094;-75
2021/09/09 15:19:26;;;;;;;7.88;3.70;;;;;;;26.37;44.86;101381.63;6277475;22;20469;-75
2021/09/09 15:22:12;;;;;;;5.47;3.17;;;;;;;25.91;45.46;101380.44;6277271;22;20405;-75
2021/09/09 15:24:57;;;;;;;8.45;3.38;;;;;;;25.82;45.31;101381.97;6278113;22;20008;-74
2021/09/09 15:27:44;;;;;;;11.50;3.00;;;;;;;25.67;44.95;101376.78;6276664;22;20003;-74
2021/09/09 15:30:29;;;;;;;13.93;3.40;;;;;;;25.95;45.04;101379.28;6277540;22;20322;-74
2021/09/09 15:33:15;;;;;;;8.93;3.03;;;;;;;25.66;44.50;101377.75;6277341;22;19999;-74
2021/09/09 15:36:01;;;;;;;8.85;3.25;;;;;;;25.52;43.88;101367.97;6276562;22;20287;-75
2021/09/09 15:38:47;;;;;;;15.90;3.83;;;;;;;25.75;44.39;101379.78;6276307;22;20016;-74
2021/09/09 15:41:33;;;;;;;13.15;3.97;;;;;;;25.57;44.34;101367.66;6276059;22;20007;-75
2021/09/09 15:44:18;;;;;;;13.40;3.80;;;;;;;25.39;45.27;101377.00;6278045;22;20003;-74
2021/09/09 15:47:04;;;;;;;10.75;3.40;;;;;;;25.24;44.83;101372.63;6277318;22;20479;-75
2021/09/09 15:49:50;;;;;;;17.83;4.03;;;;;;;25.16;44.65;101374.97;6276303;22;20461;-75
2021/09/09 15:52:36;;;;;;;12.45;3.22;;;;;;;25.20;44.29;101371.13;6278517;22;20018;-75
2021/09/09 15:55:23;;;;;;;8.00;2.72;;;;;;;25.10;44.52;101362.81;6277512;22;20007;-74
2021/09/09 15:58:09;;;;;;;12.35;3.40;;;;;;;25.11;44.51;101363.69;6277307;22;20026;-74
2021/09/09 16:00:56;;;;;;;9.50;3.70;;;;;;;25.14;43.92;101366.16;6277079;22;20095;-74
2021/09/09 16:03:42;;;;;;;11.20;3.63;;;;;;;25.31;43.93;101357.88;6277050;22;20003;-74
2021/09/09 16:06:28;;;;;;;9.25;3.42;;;;;;;25.36;43.68;101363.78;6277327;22;20030;-74
2021/09/09 16:09:15;;;;;;;11.05;3.60;;;;;;;25.70;43.00;101353.28;6276414;22;20054;-74
2021/09/09 16:12:03;;;;;;;8.60;4.25;;;;;;;25.55;43.29;101358.88;6278055;22;20007;-74
2021/09/09 16:14:49;;;;;;;14.55;3.53;;;;;;;25.28;43.26;101360.75;6276110;22;20018;-74
2021/09/09 16:17:36;;;;;;;13.45;4.97;;;;;;;25.34;42.21;101360.31;6276260;22;20008;-74
2021/09/09 16:20:22;;;;;;;12.00;3.85;;;;;;;25.16;42.58;101359.72;6275771;22;20086;-74
2021/09/09 16:23:08;;;;;;;14.73;3.65;;;;;;;25.06;42.16;101355.94;6278304;22;20440;-76
2021/09/09 16:25:54;;;;;;;8.88;2.78;;;;;;;25.23;41.86;101361.03;6280034;22;20065;-74
2021/09/09 16:28:40;;;;;;;11.52;3.20;;;;;;;25.36;41.67;101356.56;6276814;22;20023;-75
2021/09/09 16:31:26;;;;;;;11.32;3.15;;;;;;;25.18;41.56;101352.44;6276875;22;20483;-74
2021/09/09 16:34:12;;;;;;;8.57;3.25;;;;;;;25.32;41.66;101367.63;6277885;22;20004;-74
2021/09/09 16:36:58;;;;;;;8.68;2.83;;;;;;;25.14;41.67;101360.78;6275315;22;20018;-75
2021/09/09 16:39:43;;;;;;;8.57;3.13;;;;;;;25.19;41.52;101364.03;6276530;22;20349;-74
2021/09/09 16:42:29;;;;;;;7.95;2.97;;;;;;;25.17;41.44;101355.22;6277841;22;20512;-75
2021/09/09 16:45:15;;;;;;;8.95;3.40;;;;;;;24.48;42.36;101360.72;6276675;22;20018;-75
2021/09/09 16:48:02;;;;;;;10.43;3.30;;;;;;;24.60;42.01;101361.75;6276242;22;20011;-74
2021/09/09 16:50:48;;;;;;;9.45;3.60;;;;;;;24.91;41.35;101354.28;6275606;22;20014;-74
2021/09/09 16:53:34;;;;;;;14.57;3.60;;;;;;;24.50;41.60;101363.28;6276972;22;20357;-75
2021/09/09 16:56:25;;;;;;;8.02;3.53;;;;;;;24.37;42.04;101362.34;6276584;22;20069;-75
2021/09/09 16:59:15;;;;;;;7.53;3.97;;;;;;;24.42;42.03;101360.22;6274842;22;20090;-75
2021/09/09 17:02:01;;;;;;;9.88;4.30;;;;;;;24.64;41.71;101360.63;6276752;22;20017;-75
2021/09/09 17:04:47;;;;;;;12.30;3.70;;;;;;;24.27;41.69;101363.91;6277058;22;20031;-75
2021/09/09 17:07:33;;;;;;;9.13;4.22;;;;;;;24.33;40.85;101364.38;6279447;22;20035;-75
2021/09/09 17:10:19;;;;;;;10.80;3.25;;;;;;;24.04;41.35;101372.53;6276394;22;20011;-75
2021/09/09 17:13:06;;;;;;;6.25;2.67;;;;;;;24.29;41.13;101368.22;6276871;22;20018;-75
2021/09/09 17:15:52;;;;;;;9.15;2.88;;;;;;;24.24;41.22;101373.00;6276567;22;20302;-75
2021/09/09 17:18:38;;;;;;;8.00;2.78;;;;;;;24.14;41.02;101381.72;6276956;22;20004;-75
2021/09/09 17:21:24;;;;;;;12.57;2.92;;;;;;;24.40;40.79;101381.78;6275998;22;20004;-75
2021/09/09 17:24:10;;;;;;;5.78;2.53;;;;;;;24.39;40.33;101385.41;6276245;22;20036;-75
2021/09/09 17:26:56;;;;;;;4.93;2.88;;;;;;;24.40;40.45;101392.50;6275378;22;20011;-75
2021/09/09 17:29:42;;;;;;;9.90;3.13;;;;;;;24.18;40.78;101399.31;6275629;22;20016;-74
2021/09/09 17:32:28;;;;;;;5.25;2.47;;;;;;;23.85;41.20;101399.56;6276326;22;20004;-75
2021/09/09 17:35:14;;;;;;;9.68;2.92;;;;;;;23.54;42.35;101393.50;6276603;22;20298;-75
2021/09/09 17:38:01;;;;;;;7.45;2.17;;;;;;;24.04;41.78;101407.34;6276880;22;20008;-74
2021/09/09 17:41:02;;;;;;;6.22;2.53;;;;;;;23.70;42.08;101402.31;6276523;22;20011;-74
2021/09/09 17:43:48;;;;;;;11.13;2.60;;;;;;;23.76;42.20;101402.81;6276578;22;20339;-74
2021/09/09 17:46:34;;;;;;;10.13;2.65;;;;;;;23.62;42.83;101407.28;6275788;22;20039;-75
2021/09/09 17:49:20;;;;;;;6.50;2.55;;;;;;;23.55;43.43;101417.47;6274590;22;20003;-74
2021/09/09 17:52:06;;;;;;;4.45;2.40;;;;;;;23.55;43.28;101416.59;6277441;22;20040;-75
2021/09/09 17:54:52;;;;;;;6.85;2.58;;;;;;;23.29;44.24;101421.69;6276805;22;20003;-74
2021/09/09 17:57:38;;;;;;;7.60;2.25;;;;;;;23.22;44.67;101425.66;6276076;22;20089;-75
2021/09/09 18:00:24;;;;;;;11.07;2.72;;;;;;;23.20;45.25;101424.88;6276387;22;20399;-75
2021/09/09 18:03:10;;;;;;;7.18;2.28;;;;;;;23.27;45.39;101420.06;6276231;22;19999;-75
2021/09/09 18:05:56;;;;;;;4.28;2.40;;;;;;;23.38;45.42;101422.94;6274636;22;20011;-75
2021/09/09 18:08:42;;;;;;;8.27;2.25;;;;;;;23.01;46.55;101426.88;6275202;22;20003;-74
2021/09/09 18:11:27;;;;;;;7.63;2.05;;;;;;;22.83;47.14;101432.41;6276803;22;20003;-74
2021/09/09 18:14:14;;;;;;;6.88;2.50;;;;;;;22.72;47.84;101430.34;6275099;22;20008;-74
2021/09/09 18:17:00;;;;;;;9.57;2.05;;;;;;;23.07;47.70;101431.88;6275340;22;20030;-74
2021/09/09 18:19:46;;;;;;;7.70;2.00;;;;;;;22.68;49.14;101430.59;6276458;22;20124;-74
2021/09/09 18:22:32;;;;;;;6.72;2.15;;;;;;;22.71;49.62;101435.78;6276496;22;20011;-74
2021/09/09 18:25:18;;;;;;;6.53;2.28;;;;;;;22.72;50.18;101435.69;6276191;22;20003;-74
2021/09/09 18:28:04;;;;;;;8.15;2.20;;;;;;;22.99;49.87;101436.78;6276417;22;20012;-75
2021/09/09 18:30:51;;;;;;;7.40;2.47;;;;;;;22.46;52.01;101436.28;6276630;22;20015;-75
2021/09/09 18:33:36;;;;;;;4.80;2.30;;;;;;;22.46;52.70;101438.03;6277155;22;20031;-74
2021/09/09 18:36:22;;;;;;;6.20;2.20;;;;;;;22.44;52.71;101443.47;6276616;22;20061;-74
2021/09/09 18:39:09;;;;;;;6.47;2.40;;;;;;;22.73;52.71;101442.75;6278097;22;20018;-74
2021/09/09 18:41:54;;;;;;;9.55;2.53;;;;;;;22.53;53.26;101436.78;6278148;22;20004;-74
2021/09/09 18:44:40;;;;;;;6.93;2.10;;;;;;;22.66;53.62;101445.84;6277675;22;20014;-74
2021/09/09 18:47:26;;;;;;;8.15;2.22;;;;;;;22.48;54.43;101439.75;6278058;22;20112;-74
2021/09/09 18:50:12;;;;;;;8.95;2.20;;;;;;;22.62;55.00;101442.50;6277870;22;20006;-74
2021/09/09 18:52:58;;;;;;;5.90;1.90;;;;;;;22.48;56.00;101445.06;6278080;22;20018;-74
2021/09/09 18:55:44;;;;;;;12.32;2.10;;;;;;;22.19;57.90;101444.91;6277574;22;20077;-74
2021/09/09 18:58:30;;;;;;;4.65;2.28;;;;;;;22.38;58.38;101449.16;6277360;22;20010;-74
2021/09/09 19:01:16;;;;;;;7.03;2.17;;;;;;;22.62;57.50;101442.50;6278447;22;20007;-74
2021/09/09 19:04:02;;;;;;;5.75;2.08;;;;;;;22.18;59.77;101444.03;6278039;22;20069;-74
2021/09/09 19:06:48;;;;;;;6.88;2.00;;;;;;;22.19;60.52;101440.41;6277678;22;20117;-74
2021/09/09 19:09:34;;;;;;;7.88;2.45;;;;;;;22.26;61.24;101444.47;6277463;22;20065;-75
2021/09/09 19:12:19;;;;;;;8.32;2.00;;;;;;;22.38;60.80;101442.97;6276954;22;20026;-75
2021/09/09 19:15:06;;;;;;;7.80;2.20;;;;;;;22.08;62.73;101440.13;6277341;22;20077;-74
2021/09/09 19:17:52;;;;;;;8.93;2.13;;;;;;;22.16;62.55;101448.59;6277599;22;20082;-74
2021/09/09 19:20:38;;;;;;;5.78;2.40;;;;;;;22.07;63.34;101454.41;6278214;22;20046;-74
2021/09/09 19:23:24;;;;;;;5.20;2.10;;;;;;;21.77;65.34;101452.47;6278981;22;20011;-74
2021/09/09 19:26:10;;;;;;;9.48;2.10;;;;;;;21.89;65.00;101443.84;6277608;22;20018;-75
2021/09/09 19:28:56;;;;;;;7.03;2.00;;;;;;;22.06;64.51;101446.50;6277342;22;20094;-74
2021/09/09 19:31:42;;;;;;;9.20;2.20;;;;;;;21.53;67.58;101446.56;6278229;22;20061;-74
2021/09/09 19:34:28;;;;;;;5.25;2.20;;;;;;;21.74;67.04;101453.50;6278530;22;20003;-74
2021/09/09 19:37:14;;;;;;;8.23;2.30;;;;;;;21.89;65.88;101449.16;6278164;22;20007;-75
2021/09/09 19:40:00;;;;;;;5.47;1.80;;;;;;;21.50;69.13;101445.88;6277557;22;20007;-74
2021/09/09 19:42:46;;;;;;;8.07;2.63;;;;;;;21.82;68.56;101442.44;6278195;22;20065;-75
2021/09/09 19:45:31;;;;;;;6.38;2.38;;;;;;;21.88;68.09;101445.66;6276213;22;20069;-74
2021/09/09 19:48:17;;;;;;;8.30;2.17;;;;;;;21.54;70.47;101456.28;6277576;22;20010;-74
2021/09/09 19:51:04;;;;;;;6.78;2.03;;;;;;;21.17;73.51;101448.41;6278263;22;20003;-74
2021/09/09 19:53:49;;;;;;;7.78;2.17;;;;;;;21.19;74.46;101451.88;6277978;22;20008;-74
2021/09/09 19:56:35;;;;;;;5.57;2.55;;;;;;;21.49;72.61;101455.66;6278077;22;20011;-74
2021/09/09 19:59:21;;;;;;;4.03;2.10;;;;;;;21.63;72.26;101457.63;6276972;22;20035;-74
2021/09/09 20:02:07;;;;;;;8.10;1.90;;;;;;;21.67;72.11;101449.41;6278229;22;20012;-74
2021/09/09 20:04:53;;;;;;;6.35;1.88;;;;;;;21.85;70.77;101464.50;6277224;22;20008;-75
2021/09/09 20:07:39;;;;;;;5.97;2.22;;;;;;;21.64;72.54;101452.22;6278072;22;20398;-74
2021/09/09 20:10:27;;;;;;;5.50;1.95;;;;;;;21.75;72.33;101460.59;6277654;22;20003;-75
2021/09/09 20:13:13;;;;;;;5.25;2.10;;;;;;;21.64;73.32;101460.22;6277874;22;20008;-75
2021/09/09 20:16:00;;;;;;;4.80;2.08;;;;;;;21.50;74.98;101464.53;6277201;22;20004;-74
2021/09/09 20:18:46;;;;;;;5.38;2.25;;;;;;;21.55;75.47;101463.38;6277784;22;20007;-75
2021/09/09 20:21:32;;;;;;;6.78;1.90;;;;;;;21.18;79.00;101471.47;6276813;22;20402;-74
2021/09/09 20:24:18;;;;;;;8.10;2.03;;;;;;;21.34;78.57;101474.25;6275824;22;20007;-76
2021/09/09 20:27:04;;;;;;;7.55;2.30;;;;;;;21.16;81.18;101478.69;6276818;22;20018;-74
2021/09/09 20:29:50;;;;;;;8.55;2.13;;;;;;;21.04;82.63;101478.41;6276929;22;20437;-74
2021/09/09 20:32:36;;;;;;;5.40;2.17;;;;;;;21.40;80.36;101480.13;6276869;22;20003;-74
2021/09/09 20:35:22;;;;;;;6.65;2.20;;;;;;;21.18;82.04;101476.78;6276820;22;20014;-74
2021/09/09 20:38:08;;;;;;;6.30;2.30;;;;;;;21.33;80.93;101486.72;6275757;22;20007;-74
2021/09/09 20:40:54;;;;;;;8.85;2.22;;;;;;;21.30;81.85;101483.34;6277938;22;20003;-74
2021/09/09 20:43:40;;;;;;;5.20;2.33;;;;;;;21.16;83.41;101485.81;6277004;22;20019;-74
2021/09/09 20:46:26;;;;;;;4.88;2.00;;;;;;;21.01;85.39;101484.75;6277335;22;20394;-74
2021/09/09 20:49:13;;;;;;;7.03;2.47;;;;;;;20.89;85.87;101487.97;6278143;22;20015;-74
2021/09/09 20:51:59;;;;;;;9.27;2.78;;;;;;;20.79;87.14;101488.47;6277363;22;20010;-75
2021/09/09 20:54:45;;;;;;;5.90;2.40;;;;;;;20.90;85.70;101487.03;6277986;22;20394;-74
2021/09/09 20:57:31;;;;;;;6.97;2.17;;;;;;;20.58;88.67;101495.66;6276529;22;20018;-74
2021/09/09 21:00:17;;;;;;;6.78;2.38;;;;;;;20.80;87.66;101499.06;6277127;22;20092;-74
2021/09/09 21:03:03;;;;;;;9.20;2.92;;;;;;;20.60;90.16;101492.94;6277288;22;20086;-75
2021/09/09 21:05:49;;;;;;;6.65;2.30;;;;;;;20.35;92.86;101500.31;6278854;22;20026;-75
2021/09/09 21:08:35;;;;;;;5.90;2.50;;;;;;;20.14;94.59;101502.16;6276441;22;20011;-75
2021/09/09 21:11:21;;;;;;;6.75;2.22;;;;;;;20.29;94.59;101506.78;6276665;22;20003;-75
2021/09/09 21:14:07;;;;;;;4.15;2.00;;;;;;;20.38;94.19;101501.06;6275721;22;20003;-75
2021/09/09 21:16:53;;;;;;;4.90;2.38;;;;;;;20.82;91.25;101504.31;6276755;22;20072;-76
2021/09/09 21:19:39;;;;;;;5.55;2.70;;;;;;;20.55;94.27;101509.13;6276878;22;20007;-75
2021/09/09 21:22:25;;;;;;;5.47;2.47;;;;;;;20.40;96.43;101500.97;6277779;22;20054;-74
2021/09/09 21:25:11;;;;;;;4.38;2.30;;;;;;;20.70;95.44;101508.41;6276603;22;20007;-74
2021/09/09 21:27:57;;;;;;;11.70;3.03;;;;;;;20.48;100.00;101505.00;6276489;22;20015;-74
2021/09/09 21:30:43;;;;;;;8.75;3.20;;;;;;;20.23;100.00;101508.84;6276647;22;20016;-75
2021/09/09 21:33:29;;;;;;;8.05;3.53;;;;;;;19.74;100.00;101506.56;6277166;22;20016;-75
2021/09/09 21:36:15;;;;;;;8.40;3.45;;;;;;;19.50;100.00;101510.25;6276227;22;20034;-73
2021/09/09 21:39:01;;;;;;;6.25;3.13;;;;;;;19.89;100.00;101497.94;6277073;22;20003;-73
2021/09/09 21:41:47;;;;;;;8.15;3.30;;;;;;;20.07;100.00;101490.00;6276353;22;20011;-74
2021/09/09 21:44:33;;;;;;;7.68;3.00;;;;;;;20.25;100.00;101488.38;6276569;22;20008;-75
2021/09/09 21:47:18;;;;;;;5.97;2.78;;;;;;;20.29;100.00;101487.28;6277625;22;20054;-75
2021/09/09 21:50:05;;;;;;;9.25;2.90;;;;;;;20.04;100.00;101478.63;6277274;22;20003;-74
2021/09/09 21:52:51;;;;;;;6.82;2.70;;;;;;;20.39;100.00;101480.59;6275006;22;20395;-75
2021/09/09 21:55:38;;;;;;;7.57;3.42;;;;;;;20.14;100.00;101480.00;6276147;22;20018;-74
2021/09/09 21:58:23;;;;;;;7.22;2.90;;;;;;;20.27;100.00;101483.81;6278866;22;20409;-74
2021/09/09 22:01:09;;;;;;;7.60;2.88;;;;;;;19.88;100.00;101470.47;6275607;22;20109;-75
2021/09/09 22:03:55;;;;;;;7.18;2.75;;;;;;;19.95;100.00;101479.03;6276252;22;20007;-75